createdAt,value
2018-02-20T21:42:52.403Z,568.17
2018-02-20T21:44:56.437Z,659.53
2018-02-20T21:47:00.453Z,709.27
2018-02-20T21:51:32.228Z,476.63
2018-02-20T21:53:38.164Z,1023.47
2018-02-20T21:55:43.795Z,593.27
2018-02-20T21:57:50.625Z,695.57
2018-02-20T21:59:57.363Z,793.23
2018-02-20T22:02:03.546Z,643.73
2018-02-20T22:04:09.205Z,679.17
2018-02-20T22:06:15.014Z,1513.60
2018-02-20T22:08:20.387Z,657.57
2018-02-20T22:10:27.198Z,496.60
2018-02-20T22:12:32.928Z,357.00
2018-02-20T22:14:38.396Z,270.43
2018-02-20T22:16:44.128Z,206.10
2018-02-20T22:18:49.425Z,190.87
2018-02-20T22:20:55.213Z,167.90
2018-02-20T22:23:01.300Z,156.17
2018-02-20T22:25:07.134Z,148.57
2018-02-20T22:27:13.230Z,142.33
2018-02-20T22:29:19.748Z,135.43
2018-02-20T22:31:25.479Z,134.73
2018-02-20T22:33:30.892Z,130.03
2018-02-20T22:35:36.454Z,143.73
2018-02-20T22:37:42.099Z,142.57
2018-02-20T22:39:47.941Z,228.43
2018-02-20T22:41:53.730Z,247.87
2018-02-20T22:43:59.393Z,264.07
2018-02-20T22:46:05.124Z,550.77
2018-02-20T22:48:11.332Z,473.43
2018-02-20T22:50:16.756Z,751.73
2018-02-20T22:52:22.179Z,622.37
2018-02-20T22:54:27.884Z,583.83
2018-02-20T22:56:34.436Z,570.70
2018-02-20T22:58:39.830Z,591.33
2018-02-20T23:00:49.296Z,685.37
2018-02-20T23:02:55.800Z,564.67
2018-02-20T23:05:02.295Z,574.67
2018-02-20T23:07:08.540Z,407.40
2018-02-20T23:09:14.674Z,524.83
2018-02-20T23:11:28.536Z,598.60
2018-02-20T23:13:34.261Z,527.90
2018-02-20T23:15:40.345Z,688.00
2018-02-20T23:17:45.602Z,550.83
2018-02-20T23:19:51.375Z,680.47
2018-02-20T23:21:58.225Z,516.53
2018-02-20T23:24:04.551Z,664.73
2018-02-20T23:26:10.952Z,470.00
2018-02-20T23:28:16.927Z,385.00
2018-02-20T23:30:22.788Z,829.10
2018-02-20T23:32:29.127Z,612.13
2018-02-20T23:34:34.729Z,383.97
2018-02-20T23:36:40.492Z,268.97
2018-02-20T23:38:46.212Z,225.33
2018-02-20T23:40:51.638Z,183.20
2018-02-20T23:42:57.457Z,154.93
2018-02-20T23:45:04.041Z,146.40
2018-02-20T23:47:09.446Z,498.07
2018-02-20T23:49:15.496Z,519.20
2018-02-20T23:51:25.408Z,412.57
2018-02-20T23:53:31.046Z,260.67
2018-02-20T23:55:36.835Z,169.60
2018-02-20T23:57:42.545Z,149.73
2018-02-20T23:59:49.760Z,144.50
